Time;durP1;ratioP1;P1;durP2;ratioP2;P2;SDS_P1;SDS_P2;PMS_P1;PMS_P2;Temp;Humidity;BMP_temperature;BMP_pressure;BME280_temperature;BME280_humidity;BME280_pressure;Samples;Min_cycle;Max_cycle;Signal;HPM_P1;HPM_P2
2023/08/18 00:02:27;;;;;;;6.90;5.57;;;26.80;69.60;;;;;;6111028;28;81258;-65
2023/08/18 00:05:28;;;;;;;7.88;5.03;;;26.70;69.50;;;;;;6117219;28;80286;-65
2023/08/18 00:08:28;;;;;;;7.38;6.20;;;26.80;69.80;;;;;;6105784;28;81281;-63
2023/08/18 00:11:29;;;;;;;7.70;5.10;;;26.80;69.40;;;;;;6127054;28;81038;-63
2023/08/18 00:14:29;;;;;;;8.68;5.10;;;26.70;69.40;;;;;;6117124;28;80481;-63
2023/08/18 00:17:30;;;;;;;8.40;5.63;;;26.70;69.80;;;;;;6108130;28;80445;-65
2023/08/18 00:20:30;;;;;;;8.00;5.38;;;26.70;69.80;;;;;;6107592;28;80994;-65
2023/08/18 00:23:31;;;;;;;9.88;5.28;;;26.70;69.70;;;;;;6107951;28;81583;-64
2023/08/18 00:26:31;;;;;;;13.88;6.80;;;26.70;69.60;;;;;;6106538;28;81392;-63
2023/08/18 00:29:32;;;;;;;7.55;5.63;;;26.70;69.60;;;;;;6108987;28;81466;-63
2023/08/18 00:32:34;;;;;;;7.82;5.10;;;26.70;69.80;;;;;;6134151;28;80857;-64
2023/08/18 00:35:34;;;;;;;7.15;5.82;;;26.80;69.90;;;;;;6143199;28;80487;-64
2023/08/18 00:38:35;;;;;;;11.05;6.10;;;26.70;69.80;;;;;;6122570;28;81476;-63
2023/08/18 00:41:36;;;;;;;7.43;5.82;;;26.80;70.00;;;;;;6109860;28;83101;-66
2023/08/18 00:44:37;;;;;;;8.00;5.38;;;26.80;70.00;;;;;;6110212;28;80866;-60
2023/08/18 00:47:37;;;;;;;6.50;5.00;;;26.80;70.10;;;;;;6130846;28;80655;-59
2023/08/18 00:50:38;;;;;;;6.75;5.07;;;26.80;70.10;;;;;;6110377;28;83293;-58
2023/08/18 00:53:38;;;;;;;7.88;5.43;;;26.80;69.80;;;;;;6108891;28;82573;-59
2023/08/18 00:56:39;;;;;;;7.05;5.28;;;26.70;69.80;;;;;;6129004;28;80503;-59
2023/08/18 00:59:39;;;;;;;8.88;5.35;;;26.70;70.20;;;;;;6110220;28;83904;-59
2023/08/18 01:02:40;;;;;;;8.50;5.47;;;26.70;70.30;;;;;;6117689;28;80722;-66
2023/08/18 01:05:41;;;;;;;7.63;5.47;;;26.70;70.50;;;;;;6110727;28;80280;-68
2023/08/18 01:08:42;;;;;;;7.85;5.72;;;26.70;70.30;;;;;;6117086;28;81149;-68
2023/08/18 01:11:43;;;;;;;7.35;5.40;;;26.70;70.10;;;;;;6116227;28;80974;-67
2023/08/18 01:14:43;;;;;;;7.20;5.55;;;26.70;70.40;;;;;;6110858;28;81321;-64
2023/08/18 01:17:44;;;;;;;6.63;5.47;;;26.70;70.30;;;;;;6107741;28;83288;-64
2023/08/18 01:20:45;;;;;;;8.68;5.65;;;26.70;70.10;;;;;;6106726;28;81636;-60
2023/08/18 01:23:45;;;;;;;9.18;5.90;;;26.70;70.40;;;;;;6119558;28;80932;-59
2023/08/18 01:26:46;;;;;;;8.30;5.03;;;26.70;70.20;;;;;;6106361;28;80499;-59
2023/08/18 01:29:47;;;;;;;7.72;5.45;;;26.80;70.30;;;;;;6111690;28;80403;-58
2023/08/18 01:32:49;;;;;;;9.13;5.85;;;26.70;70.40;;;;;;6115830;28;85759;-60
2023/08/18 01:35:49;;;;;;;9.27;4.97;;;26.80;70.20;;;;;;6130031;28;80800;-60
2023/08/18 01:38:50;;;;;;;9.93;5.65;;;26.80;70.00;;;;;;6140557;28;80786;-63
2023/08/18 01:41:50;;;;;;;7.63;5.53;;;26.70;70.00;;;;;;6129257;28;80591;-65
2023/08/18 01:44:51;;;;;;;8.35;5.43;;;26.60;70.20;;;;;;6116252;28;80332;-65
2023/08/18 01:47:51;;;;;;;6.78;5.05;;;26.70;70.40;;;;;;6121014;28;83323;-64
2023/08/18 01:50:52;;;;;;;8.73;5.22;;;26.70;70.40;;;;;;6123416;28;80511;-64
2023/08/18 01:53:52;;;;;;;7.65;5.25;;;26.70;70.20;;;;;;6117723;28;80253;-64
2023/08/18 01:56:54;;;;;;;7.22;5.45;;;26.70;70.60;;;;;;6116822;28;80932;-72
2023/08/18 01:59:54;;;;;;;9.32;6.07;;;26.70;70.20;;;;;;6123692;28;83560;-70
2023/08/18 02:02:56;;;;;;;5.35;4.80;;;26.70;69.90;;;;;;6139141;28;82717;-70
2023/08/18 02:05:57;;;;;;;7.18;4.88;;;26.70;71.00;;;;;;6127251;28;80268;-66
2023/08/18 02:08:59;;;;;;;7.57;5.18;;;26.70;70.30;;;;;;6110340;28;82753;-66
2023/08/18 02:12:00;;;;;;;8.70;5.50;;;26.70;69.90;;;;;;6105582;28;80921;-66
2023/08/18 02:15:00;;;;;;;11.05;5.70;;;26.70;70.00;;;;;;6115140;28;80980;-65
2023/08/18 02:18:04;;;;;;;9.43;5.63;;;26.70;70.00;;;;;;6118632;28;82791;-66
2023/08/18 02:21:04;;;;;;;9.35;5.82;;;26.80;70.10;;;;;;6110526;28;82557;-66
2023/08/18 02:24:06;;;;;;;6.93;4.93;;;26.80;70.10;;;;;;6118087;28;83292;-66
2023/08/18 02:27:08;;;;;;;6.57;5.20;;;26.70;69.90;;;;;;6105842;28;81471;-66
2023/08/18 02:30:09;;;;;;;11.57;5.43;;;26.80;69.90;;;;;;6106227;28;81663;-65
2023/08/18 02:33:10;;;;;;;6.47;4.85;;;26.70;70.20;;;;;;6128424;28;81443;-65
2023/08/18 02:36:10;;;;;;;6.90;5.15;;;26.80;70.10;;;;;;6136709;28;82343;-65
2023/08/18 02:39:11;;;;;;;7.55;4.97;;;26.80;70.20;;;;;;6139854;28;80203;-67
2023/08/18 02:42:11;;;;;;;7.18;4.95;;;26.70;69.90;;;;;;6140187;28;80332;-66
2023/08/18 02:45:12;;;;;;;7.60;5.45;;;26.80;69.80;;;;;;6130649;28;82060;-69
2023/08/18 02:48:12;;;;;;;8.05;5.63;;;26.80;69.70;;;;;;6133443;28;84215;-68
2023/08/18 02:51:13;;;;;;;7.32;5.95;;;26.70;69.80;;;;;;6134778;28;83198;-60
2023/08/18 02:54:13;;;;;;;8.82;5.45;;;26.70;69.60;;;;;;6124255;28;83601;-61
2023/08/18 02:57:14;;;;;;;7.82;5.78;;;26.70;69.50;;;;;;6126732;28;81969;-60
2023/08/18 03:00:14;;;;;;;7.65;6.18;;;26.60;69.60;;;;;;6127341;28;81014;-60
2023/08/18 03:03:15;;;;;;;8.30;5.82;;;26.60;69.70;;;;;;6127185;28;80756;-60
2023/08/18 03:06:15;;;;;;;8.68;6.00;;;26.60;69.60;;;;;;6117262;28;83991;-59
2023/08/18 03:09:19;;;;;;;7.50;5.72;;;26.70;70.30;;;;;;6140291;28;80503;-59
2023/08/18 03:12:20;;;;;;;11.27;6.22;;;26.60;69.30;;;;;;6127572;28;83260;-59
2023/08/18 03:15:21;;;;;;;7.97;5.95;;;26.60;69.50;;;;;;6125837;28;83542;-59
2023/08/18 03:18:21;;;;;;;9.55;6.43;;;26.60;69.50;;;;;;6125517;28;83676;-59
2023/08/18 03:21:22;;;;;;;8.98;5.50;;;26.60;69.40;;;;;;6132420;28;82300;-59
2023/08/18 03:24:23;;;;;;;8.82;5.65;;;26.60;69.60;;;;;;6132233;28;83067;-58
2023/08/18 03:27:23;;;;;;;6.63;5.25;;;26.60;69.70;;;;;;6127020;28;80291;-59
2023/08/18 03:30:24;;;;;;;9.40;5.93;;;26.60;69.90;;;;;;6126385;28;82921;-59
2023/08/18 03:33:25;;;;;;;10.40;6.28;;;26.60;69.80;;;;;;6134989;28;80177;-58
2023/08/18 03:36:26;;;;;;;8.90;6.40;;;26.70;69.80;;;;;;6109379;28;80499;-58
2023/08/18 03:39:27;;;;;;;7.97;6.03;;;26.60;69.60;;;;;;6117647;28;80420;-58
2023/08/18 03:42:27;;;;;;;10.45;6.22;;;26.60;69.70;;;;;;6115206;28;80414;-59
2023/08/18 03:45:28;;;;;;;10.05;6.25;;;26.70;69.60;;;;;;6122455;28;80557;-59
2023/08/18 03:48:29;;;;;;;10.13;6.18;;;26.60;69.60;;;;;;6125399;28;83452;-67
2023/08/18 03:51:32;;;;;;;9.25;6.43;;;26.60;69.50;;;;;;6134215;28;83317;-69
2023/08/18 03:54:32;;;;;;;11.98;6.15;;;26.60;69.50;;;;;;6147514;28;83559;-68
2023/08/18 03:57:33;;;;;;;9.25;6.47;;;26.60;69.50;;;;;;6125850;28;83155;-71
2023/08/18 04:00:34;;;;;;;6.70;5.60;;;26.60;69.60;;;;;;6135510;28;80341;-69
2023/08/18 04:03:35;;;;;;;8.60;5.90;;;26.60;69.90;;;;;;6125871;28;83613;-68
2023/08/18 04:06:35;;;;;;;11.15;6.70;;;26.60;70.20;;;;;;6127809;28;83162;-65
2023/08/18 04:09:37;;;;;;;10.63;7.03;;;26.60;70.00;;;;;;6121065;28;80868;-68
2023/08/18 04:12:37;;;;;;;11.20;6.05;;;26.60;69.90;;;;;;6127277;28;83410;-67
2023/08/18 04:15:38;;;;;;;10.13;6.63;;;26.60;70.00;;;;;;6132480;28;83042;-68
2023/08/18 04:18:38;;;;;;;6.90;5.88;;;26.60;70.20;;;;;;6122472;28;82104;-66
2023/08/18 04:21:39;;;;;;;9.93;6.13;;;26.60;70.00;;;;;;6127935;28;83494;-63
2023/08/18 04:24:40;;;;;;;7.97;6.05;;;26.60;69.90;;;;;;6124125;28;82395;-58
2023/08/18 04:27:40;;;;;;;6.90;5.70;;;26.60;70.00;;;;;;6124122;28;80239;-58
2023/08/18 04:30:41;;;;;;;11.25;6.78;;;26.60;70.30;;;;;;6125822;28;83011;-59
2023/08/18 04:33:47;;;;;;;8.60;5.75;;;26.60;70.30;;;;;;6120801;28;82647;-58
2023/08/18 04:36:48;;;;;;;9.82;6.43;;;26.60;70.50;;;;;;6153314;28;82480;-58
2023/08/18 04:39:49;;;;;;;9.05;5.90;;;26.70;70.20;;;;;;6113970;28;83670;-60
2023/08/18 04:42:50;;;;;;;10.77;5.88;;;26.70;70.70;;;;;;6109810;28;80043;-58
2023/08/18 04:45:52;;;;;;;7.70;5.57;;;26.70;70.60;;;;;;6123569;28;83149;-58
2023/08/18 04:48:54;;;;;;;8.82;5.90;;;26.70;70.60;;;;;;6112092;28;81616;-58
2023/08/18 04:51:54;;;;;;;11.23;6.07;;;26.70;70.70;;;;;;6090328;28;83443;-58
2023/08/18 04:54:55;;;;;;;9.73;7.07;;;26.70;71.00;;;;;;6100181;28;83318;-58
2023/08/18 04:57:56;;;;;;;15.85;7.40;;;26.60;70.50;;;;;;6100291;28;81303;-58
2023/08/18 05:00:56;;;;;;;17.20;8.32;;;26.50;70.90;;;;;;6131464;28;80944;-58
2023/08/18 05:03:57;;;;;;;11.27;6.75;;;26.30;71.30;;;;;;6159610;28;83243;-58
2023/08/18 05:06:58;;;;;;;9.73;7.18;;;26.30;71.70;;;;;;6114352;28;81587;-57
2023/08/18 05:09:58;;;;;;;13.80;7.47;;;26.20;72.00;;;;;;6122511;28;80325;-58
2023/08/18 05:13:00;;;;;;;10.25;7.60;;;26.20;72.20;;;;;;6125119;28;82347;-59
2023/08/18 05:16:00;;;;;;;13.65;7.85;;;26.20;72.50;;;;;;6122435;28;81417;-58
2023/08/18 05:19:01;;;;;;;17.77;8.05;;;26.10;73.10;;;;;;6121609;28;80960;-68
2023/08/18 05:22:01;;;;;;;13.38;8.57;;;26.10;73.20;;;;;;6127588;28;80462;-69
2023/08/18 05:25:02;;;;;;;15.25;6.78;;;26.10;73.40;;;;;;6124341;28;82912;-65
2023/08/18 05:28:02;;;;;;;18.67;8.75;;;26.10;73.50;;;;;;6127742;28;81143;-68
2023/08/18 05:31:03;;;;;;;12.10;8.02;;;26.00;73.50;;;;;;6125817;28;80473;-72
2023/08/18 05:34:03;;;;;;;13.15;8.05;;;26.00;73.80;;;;;;6112376;28;80412;-65
2023/08/18 05:37:04;;;;;;;15.15;7.93;;;26.00;73.60;;;;;;6119094;28;80792;-59
2023/08/18 05:40:05;;;;;;;16.38;8.30;;;26.00;73.70;;;;;;6107083;28;81617;-63
2023/08/18 05:43:05;;;;;;;13.45;8.68;;;26.10;73.90;;;;;;6112251;28;80886;-59
2023/08/18 05:46:06;;;;;;;11.98;9.50;;;26.00;74.00;;;;;;6116312;28;81617;-59
2023/08/18 05:49:07;;;;;;;15.82;9.82;;;26.00;74.10;;;;;;6090419;28;80477;-61
2023/08/18 05:52:07;;;;;;;14.85;9.30;;;26.00;74.60;;;;;;6055358;28;80874;-61
2023/08/18 05:55:08;;;;;;;19.88;9.68;;;26.10;75.10;;;;;;6120980;28;81016;-68
2023/08/18 05:58:09;;;;;;;17.15;9.80;;;26.10;75.30;;;;;;6119229;28;80448;-69
2023/08/18 06:01:09;;;;;;;20.67;10.23;;;26.10;75.00;;;;;;6154252;28;84827;-66
2023/08/18 06:04:10;;;;;;;20.17;11.52;;;26.10;75.70;;;;;;6103930;28;84119;-70
2023/08/18 06:07:11;;;;;;;14.85;9.50;;;26.10;75.30;;;;;;6102506;28;83271;-64
2023/08/18 06:10:12;;;;;;;17.73;9.20;;;26.20;75.60;;;;;;6108256;28;83539;-66
2023/08/18 06:13:12;;;;;;;16.98;11.52;;;26.20;76.00;;;;;;6120132;28;81382;-72
2023/08/18 06:16:13;;;;;;;15.15;10.05;;;26.30;75.10;;;;;;6113295;28;82804;-70
2023/08/18 06:19:13;;;;;;;13.75;10.02;;;26.30;75.00;;;;;;6104008;28;83038;-68
2023/08/18 06:22:14;;;;;;;17.45;10.77;;;26.30;75.10;;;;;;6118264;28;83483;-69
2023/08/18 06:25:14;;;;;;;14.70;9.82;;;26.40;75.20;;;;;;6103661;28;83486;-69
2023/08/18 06:28:15;;;;;;;15.20;9.88;;;26.40;75.40;;;;;;6124195;28;83042;-70
2023/08/18 06:31:15;;;;;;;18.27;9.55;;;26.40;74.90;;;;;;6126629;28;80928;-70
2023/08/18 06:34:16;;;;;;;15.15;9.68;;;26.40;75.20;;;;;;6129590;28;80389;-63
2023/08/18 06:37:16;;;;;;;16.25;9.02;;;26.50;75.00;;;;;;6114299;28;82018;-62
2023/08/18 06:40:17;;;;;;;18.85;9.05;;;26.50;74.90;;;;;;6127362;28;80390;-64
2023/08/18 06:43:17;;;;;;;16.17;10.63;;;26.50;74.40;;;;;;6113500;28;80583;-62
2023/08/18 06:46:18;;;;;;;19.88;9.57;;;26.50;73.90;;;;;;6110824;28;82941;-62
2023/08/18 06:49:18;;;;;;;14.10;8.98;;;26.60;73.80;;;;;;6112243;28;83391;-61
2023/08/18 06:52:19;;;;;;;15.15;8.32;;;26.60;73.60;;;;;;6116573;28;80620;-71
2023/08/18 06:55:20;;;;;;;19.77;8.57;;;26.60;73.00;;;;;;6123442;28;80894;-70
2023/08/18 06:58:20;;;;;;;21.77;8.30;;;26.70;73.50;;;;;;6128751;28;82484;-70
2023/08/18 07:01:21;;;;;;;14.52;7.75;;;26.70;73.10;;;;;;6118581;28;81605;-71
2023/08/18 07:04:21;;;;;;;14.10;7.60;;;26.70;72.50;;;;;;6107229;28;80475;-65
2023/08/18 07:07:22;;;;;;;12.60;7.70;;;26.80;72.60;;;;;;6106229;28;83131;-64
2023/08/18 07:10:22;;;;;;;11.30;7.75;;;26.80;72.20;;;;;;6137877;28;80277;-59
2023/08/18 07:13:23;;;;;;;15.48;8.40;;;26.70;71.70;;;;;;6126571;28;82685;-62
2023/08/18 07:16:23;;;;;;;15.57;8.82;;;26.70;72.20;;;;;;6127910;28;82988;-61
2023/08/18 07:19:24;;;;;;;15.80;7.55;;;26.70;71.50;;;;;;6127184;28;80600;-62
2023/08/18 07:22:25;;;;;;;12.38;6.72;;;26.80;72.30;;;;;;6127949;28;80578;-61
2023/08/18 07:25:26;;;;;;;13.43;8.05;;;26.80;72.20;;;;;;6124716;28;80684;-61
2023/08/18 07:28:26;;;;;;;12.20;7.15;;;26.80;72.10;;;;;;6120304;28;80378;-64
2023/08/18 07:31:27;;;;;;;15.75;7.35;;;26.80;70.60;;;;;;6117735;28;81338;-64
2023/08/18 07:34:27;;;;;;;14.43;7.28;;;26.80;70.30;;;;;;6136105;28;80810;-63
2023/08/18 07:37:28;;;;;;;11.70;7.50;;;26.80;71.00;;;;;;6116626;28;80745;-66
2023/08/18 07:40:28;;;;;;;13.20;6.88;;;26.80;70.50;;;;;;6112426;28;80552;-66
2023/08/18 07:43:29;;;;;;;11.13;7.22;;;26.90;70.80;;;;;;6122939;28;80528;-66
2023/08/18 07:46:30;;;;;;;11.57;6.80;;;26.90;70.70;;;;;;6116128;28;81438;-62
2023/08/18 07:49:30;;;;;;;13.63;7.00;;;27.00;70.90;;;;;;6107450;28;80991;-62
2023/08/18 07:52:31;;;;;;;19.48;7.68;;;27.00;71.30;;;;;;6116121;28;80621;-62
2023/08/18 07:55:31;;;;;;;12.88;7.15;;;27.00;71.50;;;;;;6122793;28;80370;-61
2023/08/18 07:58:32;;;;;;;15.82;7.18;;;27.10;71.80;;;;;;6117036;28;80864;-62
2023/08/18 08:01:33;;;;;;;15.32;6.68;;;27.10;71.20;;;;;;6106168;28;80823;-59
2023/08/18 08:04:33;;;;;;;12.57;7.15;;;27.10;71.60;;;;;;6114137;28;81599;-71
2023/08/18 08:07:34;;;;;;;11.38;6.95;;;27.10;71.50;;;;;;6104984;28;80155;-70
2023/08/18 08:10:34;;;;;;;9.55;6.97;;;27.10;71.50;;;;;;6112090;28;82678;-62
2023/08/18 08:13:35;;;;;;;10.18;6.97;;;27.10;71.50;;;;;;6129946;28;85519;-68
2023/08/18 08:16:35;;;;;;;9.95;7.03;;;27.20;71.40;;;;;;6127207;28;81989;-68
2023/08/18 08:19:36;;;;;;;14.20;7.65;;;27.20;71.00;;;;;;6139009;28;80479;-71
2023/08/18 08:22:36;;;;;;;11.00;6.32;;;27.20;71.10;;;;;;6124283;28;81867;-71
2023/08/18 08:25:37;;;;;;;11.23;6.78;;;27.30;71.00;;;;;;6137094;28;81255;-72
2023/08/18 08:28:38;;;;;;;13.10;6.93;;;27.30;70.90;;;;;;6116017;28;80791;-69
2023/08/18 08:31:38;;;;;;;8.65;6.72;;;27.20;72.50;;;;;;6118290;28;80603;-69
2023/08/18 08:34:42;;;;;;;12.65;7.30;;;27.00;69.30;;;;;;6135339;28;82319;-70
2023/08/18 08:37:43;;;;;;;9.15;6.70;;;26.70;66.30;;;;;;6128862;28;80219;-72
2023/08/18 08:40:43;;;;;;;8.77;6.43;;;26.40;64.30;;;;;;6126948;28;81639;-68
2023/08/18 08:43:44;;;;;;;13.27;5.90;;;26.20;63.10;;;;;;6114363;28;81091;-73
2023/08/18 08:46:44;;;;;;;14.07;6.80;;;26.10;62.40;;;;;;6115716;28;81295;-72
2023/08/18 08:49:45;;;;;;;9.55;5.65;;;25.90;61.80;;;;;;6126188;28;80481;-74
2023/08/18 08:52:45;;;;;;;17.33;9.57;;;25.80;61.30;;;;;;6116237;28;81805;-62
2023/08/18 08:55:46;;;;;;;13.75;9.25;;;25.70;60.70;;;;;;6117567;28;80532;-69
2023/08/18 08:58:46;;;;;;;9.80;7.07;;;25.60;60.60;;;;;;6130257;28;80326;-69
2023/08/18 09:01:47;;;;;;;12.48;8.10;;;25.60;61.10;;;;;;6129561;28;80297;-59
2023/08/18 09:04:47;;;;;;;11.82;7.63;;;25.50;60.50;;;;;;6128519;28;80843;-58
2023/08/18 09:07:48;;;;;;;12.18;7.20;;;25.50;60.30;;;;;;6129812;28;80290;-60
2023/08/18 09:10:48;;;;;;;11.65;7.85;;;25.50;60.40;;;;;;6129673;28;80432;-59
2023/08/18 09:13:49;;;;;;;10.52;7.57;;;25.40;67.30;;;;;;6129697;28;80826;-60
2023/08/18 09:16:49;;;;;;;13.50;8.75;;;25.70;70.00;;;;;;6112922;28;82865;-61
2023/08/18 09:19:50;;;;;;;12.30;8.73;;;25.90;71.30;;;;;;6109014;28;84988;-75
2023/08/18 09:22:50;;;;;;;12.07;7.72;;;26.20;74.10;;;;;;6116624;28;81152;-75
2023/08/18 09:25:51;;;;;;;12.32;8.48;;;26.30;74.10;;;;;;6133914;28;80111;-74
2023/08/18 09:28:51;;;;;;;15.52;9.57;;;26.50;75.30;;;;;;6120100;28;80885;-73
2023/08/18 09:31:52;;;;;;;12.00;8.65;;;26.70;78.00;;;;;;6133471;28;81554;-74
2023/08/18 09:34:53;;;;;;;23.67;10.40;;;26.80;79.30;;;;;;6138393;28;80501;-73
2023/08/18 09:37:53;;;;;;;14.32;9.38;;;26.90;81.00;;;;;;6122493;28;86055;-58
2023/08/18 09:40:54;;;;;;;13.88;8.13;;;27.00;80.10;;;;;;6131776;28;83015;-58
2023/08/18 09:43:54;;;;;;;11.43;7.97;;;27.10;78.70;;;;;;6132536;28;80785;-58
2023/08/18 09:46:55;;;;;;;10.43;7.32;;;27.10;78.60;;;;;;6143169;28;83290;-55
2023/08/18 09:49:55;;;;;;;11.77;9.00;;;27.20;78.20;;;;;;6123783;28;81494;-58
2023/08/18 09:52:56;;;;;;;12.13;7.65;;;27.20;77.60;;;;;;6129222;28;80736;-58
2023/08/18 09:55:57;;;;;;;12.00;7.55;;;27.30;77.60;;;;;;6127584;28;80535;-57
2023/08/18 09:58:57;;;;;;;13.27;7.97;;;27.30;76.30;;;;;;6127475;28;80540;-58
2023/08/18 10:01:58;;;;;;;9.48;7.82;;;27.30;75.80;;;;;;6127200;28;80760;-58
2023/08/18 10:04:58;;;;;;;12.10;7.93;;;27.40;76.10;;;;;;6126232;28;80463;-59
2023/08/18 10:07:59;;;;;;;12.25;7.97;;;27.40;76.00;;;;;;6127538;28;80675;-57
2023/08/18 10:11:00;;;;;;;10.65;7.20;;;27.50;75.90;;;;;;6134768;28;80414;-59
2023/08/18 10:14:00;;;;;;;10.85;7.80;;;27.50;74.60;;;;;;6141600;28;81412;-72
2023/08/18 10:17:01;;;;;;;9.98;7.32;;;27.60;73.20;;;;;;6123680;28;80417;-74
2023/08/18 10:20:03;;;;;;;9.43;6.82;;;27.60;74.00;;;;;;6126618;28;80921;-68
2023/08/18 10:23:03;;;;;;;8.50;7.32;;;27.60;73.60;;;;;;6124920;28;82052;-66
2023/08/18 10:26:04;;;;;;;15.45;7.97;;;27.60;72.90;;;;;;6130926;28;81100;-68
2023/08/18 10:29:04;;;;;;;17.88;7.28;;;27.70;73.70;;;;;;6117976;28;81304;-68
2023/08/18 10:32:05;;;;;;;13.70;7.35;;;27.70;73.50;;;;;;6135544;28;81590;-60
2023/08/18 10:35:06;;;;;;;8.75;6.85;;;27.60;73.80;;;;;;6135126;28;80762;-58
2023/08/18 10:38:07;;;;;;;11.20;7.07;;;27.60;75.00;;;;;;6108040;28;82895;-57
2023/08/18 10:41:08;;;;;;;11.10;7.45;;;27.40;70.60;;;;;;6117591;28;80740;-57
2023/08/18 10:44:09;;;;;;;10.75;6.90;;;27.10;67.20;;;;;;6107565;28;87568;-58
2023/08/18 10:47:09;;;;;;;10.98;7.78;;;26.80;65.40;;;;;;6116748;28;80855;-57
2023/08/18 10:50:12;;;;;;;10.38;7.55;;;26.70;64.20;;;;;;6130006;28;80556;-59
2023/08/18 10:53:13;;;;;;;12.45;7.85;;;26.50;63.40;;;;;;6127115;28;80807;-57
2023/08/18 10:56:13;;;;;;;11.25;7.68;;;26.40;63.00;;;;;;6129734;28;80152;-58
2023/08/18 10:59:14;;;;;;;19.55;10.15;;;26.50;71.10;;;;;;6118136;28;83311;-59
2023/08/18 11:02:14;;;;;;;13.70;8.27;;;26.70;72.30;;;;;;6122876;28;83531;-59
2023/08/18 11:05:15;;;;;;;12.00;7.85;;;26.80;72.80;;;;;;6110348;28;83504;-59
2023/08/18 11:08:15;;;;;;;11.75;7.43;;;27.00;72.90;;;;;;6114795;28;81740;-58
2023/08/18 11:11:16;;;;;;;8.85;7.03;;;27.10;73.00;;;;;;6124737;28;80624;-60
2023/08/18 11:14:16;;;;;;;12.73;7.63;;;27.20;73.40;;;;;;6117386;28;87804;-60
2023/08/18 11:17:17;;;;;;;10.30;7.07;;;27.30;73.00;;;;;;6118151;28;81456;-58
2023/08/18 11:20:17;;;;;;;13.32;7.35;;;27.40;73.90;;;;;;6112692;28;81185;-58
2023/08/18 11:23:18;;;;;;;9.93;7.43;;;27.50;73.70;;;;;;6117752;28;83792;-59
2023/08/18 11:26:18;;;;;;;8.52;7.43;;;27.60;74.00;;;;;;6121610;28;80868;-65
2023/08/18 11:29:19;;;;;;;11.70;7.30;;;27.60;74.20;;;;;;6120482;28;83497;-61
2023/08/18 11:32:20;;;;;;;13.68;7.35;;;27.70;74.00;;;;;;6131417;28;80744;-72
2023/08/18 11:35:20;;;;;;;12.35;7.50;;;27.80;74.00;;;;;;6141170;28;81599;-60
2023/08/18 11:38:21;;;;;;;11.40;8.30;;;27.80;73.30;;;;;;6135925;28;80537;-60
2023/08/18 11:41:21;;;;;;;11.13;7.20;;;27.90;74.20;;;;;;6140586;28;80866;-59
2023/08/18 11:44:22;;;;;;;9.27;6.90;;;27.80;73.00;;;;;;6124312;28;80515;-60
2023/08/18 11:47:23;;;;;;;12.07;7.43;;;27.90;73.60;;;;;;6127784;28;81180;-60
2023/08/18 11:50:23;;;;;;;11.43;7.15;;;27.90;75.00;;;;;;6127654;28;80729;-59
2023/08/18 11:53:25;;;;;;;9.00;7.10;;;27.90;73.00;;;;;;6125582;28;81273;-60
2023/08/18 11:56:27;;;;;;;10.55;7.25;;;28.00;72.60;;;;;;6126236;28;81387;-59
2023/08/18 11:59:27;;;;;;;10.25;6.85;;;28.00;72.00;;;;;;6139760;28;81689;-59
2023/08/18 12:02:29;;;;;;;10.75;7.50;;;28.00;72.00;;;;;;6126074;28;80541;-60
2023/08/18 12:05:30;;;;;;;9.80;7.80;;;28.00;71.60;;;;;;6106250;28;80997;-59
2023/08/18 12:08:31;;;;;;;9.80;7.07;;;28.00;71.20;;;;;;6113793;28;80935;-60
2023/08/18 12:11:34;;;;;;;11.00;7.70;;;28.00;71.00;;;;;;6127240;28;81500;-61
2023/08/18 12:14:36;;;;;;;10.57;8.18;;;28.10;71.40;;;;;;6128830;28;91434;-69
2023/08/18 12:17:39;;;;;;;9.48;7.25;;;28.00;70.80;;;;;;6123698;28;83762;-63
2023/08/18 12:20:41;;;;;;;9.55;7.18;;;28.00;71.40;;;;;;6119617;28;80813;-63
2023/08/18 12:23:42;;;;;;;12.82;7.00;;;28.00;71.50;;;;;;6108430;28;86806;-68
2023/08/18 12:26:42;;;;;;;8.93;7.03;;;28.10;73.00;;;;;;6116389;28;83962;-73
2023/08/18 12:29:43;;;;;;;8.70;7.10;;;28.00;72.10;;;;;;6121293;28;80669;-67
2023/08/18 12:32:43;;;;;;;8.70;7.35;;;28.10;72.80;;;;;;6142683;28;80670;-67
2023/08/18 12:35:44;;;;;;;8.75;6.90;;;28.10;73.30;;;;;;6137693;28;81402;-74
2023/08/18 12:38:45;;;;;;;10.10;6.75;;;28.10;74.00;;;;;;6140285;28;80597;-65
2023/08/18 12:41:45;;;;;;;9.65;7.03;;;28.20;73.40;;;;;;6122959;28;82278;-56
2023/08/18 12:44:46;;;;;;;12.48;7.38;;;28.20;72.40;;;;;;6135179;28;80829;-56
2023/08/18 12:47:47;;;;;;;8.25;7.07;;;28.30;73.30;;;;;;6130511;28;81435;-58
2023/08/18 12:50:47;;;;;;;8.98;6.85;;;28.20;72.90;;;;;;6124152;28;84155;-58
2023/08/18 12:53:48;;;;;;;9.57;6.95;;;28.00;69.90;;;;;;6125531;28;84865;-60
2023/08/18 12:56:48;;;;;;;10.48;6.35;;;27.70;66.10;;;;;;6127247;28;83395;-58
2023/08/18 12:59:49;;;;;;;10.20;6.75;;;27.40;64.00;;;;;;6122521;28;84193;-65
2023/08/18 13:02:49;;;;;;;10.45;6.95;;;27.20;63.00;;;;;;6125947;28;80825;-64
2023/08/18 13:05:50;;;;;;;9.93;6.47;;;27.10;61.90;;;;;;6107325;28;80877;-65
2023/08/18 13:08:50;;;;;;;8.27;6.75;;;26.90;61.30;;;;;;6125922;28;82134;-67
2023/08/18 13:11:51;;;;;;;9.55;7.07;;;26.80;61.60;;;;;;6120591;28;80590;-68
2023/08/18 13:14:51;;;;;;;9.73;7.18;;;26.80;60.90;;;;;;6127843;28;80787;-67
2023/08/18 13:17:52;;;;;;;10.02;6.63;;;26.60;60.30;;;;;;6126987;28;81149;-59
2023/08/18 13:20:53;;;;;;;11.77;6.47;;;26.50;60.30;;;;;;6131342;28;80573;-58
2023/08/18 13:23:55;;;;;;;7.88;6.32;;;26.40;60.40;;;;;;6117723;28;80986;-56
2023/08/18 13:26:56;;;;;;;10.00;6.75;;;26.30;60.10;;;;;;6124615;28;81555;-59
2023/08/18 13:29:56;;;;;;;9.98;6.95;;;26.50;68.40;;;;;;6129582;28;80741;-59
2023/08/18 13:32:57;;;;;;;10.02;6.07;;;26.70;69.00;;;;;;6121011;28;80363;-61
2023/08/18 13:35:57;;;;;;;12.85;6.43;;;26.90;69.00;;;;;;6127035;28;81690;-63
2023/08/18 13:38:58;;;;;;;9.23;6.47;;;27.00;69.20;;;;;;6135356;28;80679;-67
2023/08/18 13:41:58;;;;;;;9.60;6.10;;;27.10;69.60;;;;;;6138560;28;80398;-66
2023/08/18 13:44:59;;;;;;;8.13;5.90;;;27.20;69.90;;;;;;6141585;28;87372;-67
2023/08/18 13:47:59;;;;;;;10.20;6.13;;;27.20;69.40;;;;;;6143053;28;80490;-68
2023/08/18 13:51:00;;;;;;;11.27;5.93;;;27.30;69.60;;;;;;6135026;28;80560;-69
2023/08/18 13:54:00;;;;;;;11.27;6.95;;;27.40;71.70;;;;;;6130584;28;81473;-63
2023/08/18 13:57:01;;;;;;;13.35;7.05;;;27.60;72.30;;;;;;6144211;28;82030;-61
2023/08/18 14:00:01;;;;;;;9.98;7.03;;;27.70;72.50;;;;;;6136535;28;81217;-61
2023/08/18 14:03:12;;;;;;;11.15;7.43;;;27.70;71.30;;;;;;6125163;28;80308;-63
2023/08/18 14:06:12;;;;;;;19.75;7.85;;;27.70;71.30;;;;;;6129166;28;82279;-63
2023/08/18 14:09:14;;;;;;;18.27;7.75;;;27.80;73.20;;;;;;6133669;28;80477;-63
2023/08/18 14:12:14;;;;;;;14.52;7.90;;;27.80;73.40;;;;;;6123863;28;80456;-59
2023/08/18 14:15:15;;;;;;;15.38;7.70;;;27.80;73.30;;;;;;6120836;28;80891;-60
2023/08/18 14:18:16;;;;;;;9.90;6.95;;;27.80;73.90;;;;;;6115269;28;80472;-58
2023/08/18 14:21:16;;;;;;;15.35;7.53;;;27.80;73.50;;;;;;6124636;28;80990;-59
2023/08/18 14:24:17;;;;;;;30.42;8.45;;;27.80;74.30;;;;;;6113257;28;80490;-59
2023/08/18 14:27:17;;;;;;;15.63;7.60;;;27.80;75.10;;;;;;6112176;28;81275;-59
2023/08/18 14:30:18;;;;;;;14.90;7.78;;;27.90;75.30;;;;;;6136993;28;80805;-60
2023/08/18 14:33:18;;;;;;;8.80;6.93;;;27.90;76.00;;;;;;6136111;28;81109;-59
2023/08/18 14:36:19;;;;;;;9.60;6.93;;;27.80;75.60;;;;;;6123873;28;80792;-61
2023/08/18 14:39:19;;;;;;;12.95;6.90;;;27.80;75.10;;;;;;6106575;28;81395;-63
2023/08/18 14:42:21;;;;;;;15.38;7.55;;;27.80;75.00;;;;;;6105772;28;80300;-65
2023/08/18 14:45:22;;;;;;;13.07;6.03;;;27.80;75.10;;;;;;6117715;28;81441;-61
2023/08/18 14:48:22;;;;;;;9.73;6.03;;;27.80;74.60;;;;;;6104713;28;80398;-62
2023/08/18 14:51:22;;;;;;;10.93;7.10;;;27.80;75.00;;;;;;6113273;28;83733;-63
2023/08/18 14:54:23;;;;;;;12.63;6.78;;;27.80;75.20;;;;;;6125728;28;81476;-60
2023/08/18 14:57:24;;;;;;;8.35;6.57;;;27.80;75.60;;;;;;6134535;28;80770;-60
2023/08/18 15:00:24;;;;;;;14.55;6.20;;;27.80;76.00;;;;;;6131529;28;81193;-61
2023/08/18 15:03:25;;;;;;;9.40;6.05;;;27.70;76.10;;;;;;6130888;28;80646;-63
2023/08/18 15:06:25;;;;;;;12.75;6.55;;;27.70;76.60;;;;;;6121357;28;83247;-61
2023/08/18 15:09:26;;;;;;;8.10;5.68;;;27.70;76.20;;;;;;6130735;28;81724;-62
2023/08/18 15:12:27;;;;;;;14.20;6.47;;;27.60;76.80;;;;;;6126960;28;81349;-61
2023/08/18 15:15:27;;;;;;;6.88;5.75;;;27.60;76.90;;;;;;6123843;28;80886;-60
2023/08/18 15:18:28;;;;;;;7.35;5.47;;;27.60;77.00;;;;;;6122023;28;82420;-60
2023/08/18 15:21:28;;;;;;;9.88;5.57;;;27.60;77.20;;;;;;6119728;28;81911;-61
2023/08/18 15:24:29;;;;;;;10.13;6.05;;;27.60;75.60;;;;;;6109816;28;81886;-61
2023/08/18 15:27:29;;;;;;;11.52;5.57;;;27.60;76.90;;;;;;6125207;28;81445;-60
2023/08/18 15:30:30;;;;;;;9.60;6.32;;;27.50;77.10;;;;;;6115358;28;80555;-63
2023/08/18 15:33:30;;;;;;;7.18;5.97;;;27.40;77.80;;;;;;6134059;28;81278;-61